ソウル/仁川 の空港の天気 - METARとTAF

仁川国際空港 ( RKSI / ICN ) - 韓国 仁川広域市 (ソウル特別市近郊)
飛行場実況気象(Metar)
観測時間04/25 15:00 KST (04/25 06:00 UTC)
風向・風速西 5m/s
視程10km以上
天気現象
なし
気温20℃
湿度28%
気圧1013hPa
METARRKSI 250600Z 28010KT CAVOK 20/01 Q1013 NOSIG
過去の天気等 Google飛行場航空写真 Wunderground天気予報

過去48時間のMETAR

飛行場予報(TAF)
発表時間: 4/25 14:00 KST (4/25 05:00 UTC)
予報対象時間: 25日15時 KST ~ 26日21時 KST
風向・風速西北西 4m/s
視程10km以上
なし
25日23時 KST ~ 25日24時 KST に徐々に
風向・風速南南東 3m/s
視程6,000m
なし
26日12時 KST ~ 26日13時 KST に徐々に
風向・風速西 4m/s
26日19時 KST ~ 26日20時 KST に徐々に
風向・風速南 3m/s
TAF RKSI 250500Z 2506/2612 30007KT CAVOK TN08/2521Z TX18/2605Z
BECMG 2514/2515 16005KT 6000 NSC
BECMG 2603/2604 26008KT
BECMG 2610/2611 19006KT